Time;durP1;ratioP1;P1;durP2;ratioP2;P2;SDS_P1;SDS_P2;PMS_P1;PMS_P2;Temp;Humidity;BMP_temperature;BMP_pressure;BME280_temperature;BME280_humidity;BME280_pressure;Samples;Min_cycle;Max_cycle;Signal;HPM_P1;HPM_P2
2022/05/20 00:01:29;;;;;;;48.67;42.00;;;;;;;;;;5283578;28;20275;-69
2022/05/20 00:04:00;;;;;;;45.00;39.80;;;;;;;;;;5283740;28;20301;-69
2022/05/20 00:06:31;;;;;;;44.15;39.30;;;;;;;;;;5283014;28;20274;-69
2022/05/20 00:09:02;;;;;;;46.15;38.45;;;;;;;;;;5283914;28;20258;-69
2022/05/20 00:11:34;;;;;;;43.10;38.60;;;;;;;;;;5283588;28;20029;-69
2022/05/20 00:14:05;;;;;;;46.03;38.72;;;;;;;;;;5282065;28;20103;-70
2022/05/20 00:16:36;;;;;;;44.78;39.38;;;;;;;;;;5283698;28;20021;-70
2022/05/20 00:19:09;;;;;;;46.90;42.00;;;;;;;;;;5283594;28;20024;-69
2022/05/20 00:21:40;;;;;;;49.35;41.83;;;;;;;;;;5282519;28;20527;-70
2022/05/20 00:24:11;;;;;;;51.80;42.15;;;;;;;;;;5283331;28;20100;-69
2022/05/20 00:26:42;;;;;;;53.05;41.50;;;;;;;;;;5282500;28;20020;-69
2022/05/20 00:29:13;;;;;;;46.45;41.53;;;;;;;;;;5283543;28;20017;-69
2022/05/20 00:31:45;;;;;;;43.78;39.00;;;;;;;;;;5283321;28;20290;-69
2022/05/20 00:34:16;;;;;;;42.33;37.72;;;;;;;;;;5282289;28;20353;-69
2022/05/20 00:36:47;;;;;;;47.60;38.30;;;;;;;;;;5283125;28;20074;-70
2022/05/20 00:39:18;;;;;;;43.17;38.63;;;;;;;;;;5282465;28;20019;-68
2022/05/20 00:41:49;;;;;;;45.70;37.53;;;;;;;;;;5282715;28;20776;-69
2022/05/20 00:44:20;;;;;;;42.95;37.72;;;;;;;;;;5282799;28;20354;-70
2022/05/20 00:46:51;;;;;;;41.63;36.80;;;;;;;;;;5283228;28;20275;-69
2022/05/20 00:49:23;;;;;;;43.88;38.67;;;;;;;;;;5281623;28;20274;-69
2022/05/20 00:51:54;;;;;;;45.63;38.20;;;;;;;;;;5282924;28;20808;-69
2022/05/20 00:54:27;;;;;;;42.63;38.08;;;;;;;;;;5282681;28;20583;-69
2022/05/20 00:56:58;;;;;;;41.72;37.22;;;;;;;;;;5282357;28;20079;-70
2022/05/20 00:59:30;;;;;;;41.42;37.13;;;;;;;;;;5282404;28;20044;-69
2022/05/20 01:02:06;;;;;;;41.95;37.30;;;;;;;;;;5281845;28;20262;-69
2022/05/20 01:04:38;;;;;;;43.90;39.35;;;;;;;;;;5282591;28;20020;-69
2022/05/20 01:07:10;;;;;;;48.72;42.58;;;;;;;;;;5282573;28;20198;-69
2022/05/20 01:09:42;;;;;;;48.92;42.08;;;;;;;;;;5281641;28;20438;-69
2022/05/20 01:12:13;;;;;;;43.97;39.33;;;;;;;;;;5282283;28;20157;-69
2022/05/20 01:14:44;;;;;;;48.10;39.72;;;;;;;;;;5282488;28;20274;-69
2022/05/20 01:17:15;;;;;;;45.00;40.25;;;;;;;;;;5281290;28;20103;-68
2022/05/20 01:19:48;;;;;;;45.05;40.05;;;;;;;;;;5282131;28;20020;-69
2022/05/20 01:22:38;;;;;;;41.50;37.20;;;;;;;;;;5281463;28;20627;-69
2022/05/20 01:25:10;;;;;;;41.38;36.92;;;;;;;;;;5281506;28;20459;-69
2022/05/20 01:27:42;;;;;;;45.30;40.20;;;;;;;;;;5282230;28;20032;-69
2022/05/20 01:30:16;;;;;;;44.58;38.13;;;;;;;;;;5281049;28;20029;-69
2022/05/20 01:32:47;;;;;;;42.17;37.78;;;;;;;;;;5281866;28;20387;-69
2022/05/20 01:35:21;;;;;;;45.05;39.45;;;;;;;;;;5281341;28;20019;-68
2022/05/20 01:37:52;;;;;;;45.42;40.47;;;;;;;;;;5281124;28;20024;-69
2022/05/20 01:40:23;;;;;;;50.17;39.95;;;;;;;;;;5281437;28;20034;-69
2022/05/20 01:43:04;;;;;;;48.90;39.28;;;;;;;;;;5282123;28;20316;-69
2022/05/20 01:45:39;;;;;;;46.03;38.35;;;;;;;;;;5280713;28;20453;-69
2022/05/20 01:48:22;;;;;;;41.67;37.38;;;;;;;;;;5281440;28;20031;-69
2022/05/20 01:50:55;;;;;;;45.42;38.03;;;;;;;;;;5281992;28;20105;-69
2022/05/20 01:53:47;;;;;;;41.95;37.30;;;;;;;;;;5280198;28;20013;-69
2022/05/20 01:56:24;;;;;;;39.78;35.72;;;;;;;;;;5280938;28;20111;-69
2022/05/20 01:59:12;;;;;;;43.47;37.88;;;;;;;;;;5281076;28;20138;-69
2022/05/20 02:01:48;;;;;;;44.60;38.50;;;;;;;;;;5281198;28;20074;-69
2022/05/20 02:04:22;;;;;;;43.47;38.65;;;;;;;;;;5280882;28;20524;-69
2022/05/20 02:06:56;;;;;;;47.00;39.28;;;;;;;;;;5280997;28;20013;-70
2022/05/20 02:09:37;;;;;;;44.40;38.55;;;;;;;;;;5281030;28;20024;-71
2022/05/20 02:12:09;;;;;;;43.30;37.83;;;;;;;;;;5280444;28;20032;-70
2022/05/20 02:14:54;;;;;;;39.90;35.70;;;;;;;;;;5281184;28;20042;-70
2022/05/20 02:17:26;;;;;;;46.92;39.20;;;;;;;;;;5281008;28;20028;-70
2022/05/20 02:20:06;;;;;;;45.28;40.38;;;;;;;;;;5280668;28;20078;-70
2022/05/20 02:22:40;;;;;;;44.40;38.83;;;;;;;;;;5280925;28;20056;-69
2022/05/20 02:25:13;;;;;;;47.42;41.35;;;;;;;;;;5280995;28;20506;-69
2022/05/20 02:27:46;;;;;;;43.35;38.65;;;;;;;;;;5280463;28;20463;-69
2022/05/20 02:30:18;;;;;;;42.90;38.30;;;;;;;;;;5281009;28;20013;-69
2022/05/20 02:33:05;;;;;;;44.08;35.50;;;;;;;;;;5281386;28;20024;-70
2022/05/20 02:35:39;;;;;;;38.83;34.75;;;;;;;;;;5279926;28;20028;-69
2022/05/20 02:38:13;;;;;;;39.28;34.72;;;;;;;;;;5286240;28;20388;-70
2022/05/20 02:40:46;;;;;;;38.17;34.22;;;;;;;;;;5286913;28;20032;-70
2022/05/20 02:43:18;;;;;;;38.75;34.78;;;;;;;;;;5287829;28;20031;-70
2022/05/20 02:45:51;;;;;;;39.22;34.97;;;;;;;;;;5288053;28;20023;-70
2022/05/20 02:48:22;;;;;;;40.28;36.00;;;;;;;;;;5286479;28;20471;-70
2022/05/20 02:50:53;;;;;;;38.42;34.33;;;;;;;;;;5288026;28;20032;-70
2022/05/20 02:53:24;;;;;;;40.70;36.35;;;;;;;;;;5287287;28;20020;-68
2022/05/20 02:55:56;;;;;;;40.23;35.37;;;;;;;;;;5287173;28;20489;-69
2022/05/20 03:04:09;;;;;;;38.30;34.13;;;;;;;;;;5287899;28;20024;-69
2022/05/20 03:06:42;;;;;;;43.28;37.28;;;;;;;;;;5287465;28;20105;-69
2022/05/20 03:09:14;;;;;;;42.25;37.55;;;;;;;;;;5286666;28;20536;-70
2022/05/20 03:11:46;;;;;;;41.70;36.58;;;;;;;;;;5287678;28;20064;-68
2022/05/20 03:14:18;;;;;;;41.67;37.17;;;;;;;;;;5287812;28;20047;-70
2022/05/20 03:16:50;;;;;;;46.17;37.60;;;;;;;;;;5287001;28;20032;-69
2022/05/20 03:19:21;;;;;;;42.72;36.58;;;;;;;;;;5286921;28;20009;-69
2022/05/20 03:21:53;;;;;;;41.35;34.13;;;;;;;;;;5287377;28;20052;-69
2022/05/20 03:24:25;;;;;;;39.85;35.00;;;;;;;;;;5286418;28;20031;-69
2022/05/20 03:26:56;;;;;;;40.55;36.17;;;;;;;;;;5287676;28;20267;-69
2022/05/20 03:29:27;;;;;;;43.63;38.42;;;;;;;;;;5286946;28;20024;-70
2022/05/20 03:31:59;;;;;;;45.00;38.67;;;;;;;;;;5286998;28;20067;-69
2022/05/20 03:34:30;;;;;;;47.55;39.35;;;;;;;;;;5287106;28;20094;-70
2022/05/20 03:37:01;;;;;;;43.55;38.60;;;;;;;;;;5286764;28;20085;-70
2022/05/20 03:39:32;;;;;;;44.80;39.95;;;;;;;;;;5287299;28;20016;-70
2022/05/20 03:42:03;;;;;;;43.92;38.30;;;;;;;;;;5287390;28;20022;-70
2022/05/20 03:44:35;;;;;;;44.28;38.88;;;;;;;;;;5286473;28;20074;-70
2022/05/20 03:47:06;;;;;;;48.22;40.25;;;;;;;;;;5287341;28;20027;-70
2022/05/20 03:49:37;;;;;;;45.63;40.20;;;;;;;;;;5283628;28;20687;-70
2022/05/20 03:52:09;;;;;;;43.83;38.92;;;;;;;;;;5283577;28;20060;-70
2022/05/20 03:54:40;;;;;;;40.63;36.42;;;;;;;;;;5283817;28;20313;-70
2022/05/20 03:57:12;;;;;;;41.90;37.20;;;;;;;;;;5283715;28;20017;-70
2022/05/20 03:59:43;;;;;;;47.33;40.42;;;;;;;;;;5283117;28;20016;-70
2022/05/20 04:02:14;;;;;;;59.97;48.25;;;;;;;;;;5283776;28;20431;-70
2022/05/20 04:04:47;;;;;;;65.85;54.17;;;;;;;;;;5282906;28;20259;-70
2022/05/20 04:07:25;;;;;;;62.20;47.28;;;;;;;;;;5283400;28;20020;-70
2022/05/20 04:09:56;;;;;;;55.22;46.58;;;;;;;;;;5284232;28;20028;-70
2022/05/20 04:12:28;;;;;;;58.00;46.95;;;;;;;;;;5282511;28;20036;-69
2022/05/20 04:15:00;;;;;;;67.55;51.92;;;;;;;;;;5284173;28;20894;-69
2022/05/20 04:17:31;;;;;;;67.00;54.05;;;;;;;;;;5283391;28;20035;-69
2022/05/20 04:20:03;;;;;;;67.97;53.30;;;;;;;;;;5282701;28;20044;-69
2022/05/20 04:22:35;;;;;;;66.00;53.15;;;;;;;;;;5283005;28;20044;-69
2022/05/20 04:25:07;;;;;;;63.30;52.78;;;;;;;;;;5283574;28;20032;-69
2022/05/20 04:27:39;;;;;;;61.45;52.30;;;;;;;;;;5282688;28;20017;-69
2022/05/20 04:30:12;;;;;;;66.15;53.25;;;;;;;;;;5283299;28;20021;-69
2022/05/20 04:32:43;;;;;;;64.38;52.35;;;;;;;;;;5283199;28;20029;-69
2022/05/20 04:35:14;;;;;;;65.38;54.10;;;;;;;;;;5282625;28;20054;-69
2022/05/20 04:37:45;;;;;;;63.58;51.88;;;;;;;;;;5283362;28;20479;-69
2022/05/20 04:40:16;;;;;;;63.97;52.63;;;;;;;;;;5282332;28;20300;-69
2022/05/20 04:48:28;;;;;;;66.47;52.05;;;;;;;;;;5281728;28;20020;-69
2022/05/20 04:50:59;;;;;;;61.60;52.70;;;;;;;;;;5282819;28;20036;-69
2022/05/20 04:56:20;;;;;;;61.50;52.40;;;;;;;;;;5281595;28;20256;-69
2022/05/20 04:58:51;;;;;;;65.20;51.92;;;;;;;;;;5283190;28;20460;-69
2022/05/20 05:01:22;;;;;;;64.60;54.00;;;;;;;;;;5281027;28;20024;-69
2022/05/20 05:03:54;;;;;;;62.05;50.75;;;;;;;;;;5282809;28;20290;-69
2022/05/20 05:06:25;;;;;;;59.72;49.35;;;;;;;;;;5281989;28;20032;-69
2022/05/20 05:08:56;;;;;;;57.15;47.70;;;;;;;;;;5282017;28;20468;-69
2022/05/20 05:11:27;;;;;;;56.78;47.72;;;;;;;;;;5282238;28;20056;-69
2022/05/20 05:13:58;;;;;;;57.67;45.47;;;;;;;;;;5282553;28;20274;-69
2022/05/20 05:16:30;;;;;;;58.90;47.50;;;;;;;;;;5281397;28;20032;-68
2022/05/20 05:19:01;;;;;;;60.55;44.97;;;;;;;;;;5282365;28;20262;-69
2022/05/20 05:21:32;;;;;;;58.63;46.75;;;;;;;;;;5282102;28;20330;-69
2022/05/20 05:24:04;;;;;;;53.03;46.08;;;;;;;;;;5281519;28;20081;-69
2022/05/20 05:26:35;;;;;;;55.28;45.40;;;;;;;;;;5281785;28;20020;-69
2022/05/20 05:29:07;;;;;;;54.28;45.13;;;;;;;;;;5281522;28;20483;-70
2022/05/20 05:31:38;;;;;;;47.50;42.33;;;;;;;;;;5282043;28;20123;-69
2022/05/20 05:34:10;;;;;;;47.58;42.78;;;;;;;;;;5281949;28;20263;-70
2022/05/20 05:36:41;;;;;;;46.17;41.28;;;;;;;;;;5280973;28;20031;-69
2022/05/20 05:39:12;;;;;;;48.33;43.43;;;;;;;;;;5281500;28;20464;-69
2022/05/20 05:41:45;;;;;;;49.30;44.20;;;;;;;;;;5281915;28;20644;-69
2022/05/20 05:44:16;;;;;;;50.78;45.20;;;;;;;;;;5281213;28;20251;-69
2022/05/20 05:46:47;;;;;;;49.45;44.05;;;;;;;;;;5281405;28;20028;-70
2022/05/20 05:49:18;;;;;;;51.03;44.55;;;;;;;;;;5281216;28;20595;-69
2022/05/20 05:51:49;;;;;;;47.60;42.30;;;;;;;;;;5280898;28;20035;-70
2022/05/20 05:54:22;;;;;;;41.13;36.92;;;;;;;;;;5281272;28;20047;-70
2022/05/20 05:56:53;;;;;;;38.33;34.35;;;;;;;;;;5281667;28;20017;-70
2022/05/20 05:59:25;;;;;;;36.70;32.78;;;;;;;;;;5280390;28;20021;-70
2022/05/20 06:02:00;;;;;;;36.00;31.88;;;;;;;;;;5281500;28;20250;-70
2022/05/20 06:04:31;;;;;;;36.65;30.75;;;;;;;;;;5280638;28;20512;-70
2022/05/20 06:07:04;;;;;;;33.63;29.75;;;;;;;;;;5281724;28;20028;-70
2022/05/20 06:09:35;;;;;;;30.90;27.48;;;;;;;;;;5281351;28;20107;-69
2022/05/20 06:12:07;;;;;;;29.75;26.65;;;;;;;;;;5279886;28;20108;-69
2022/05/20 06:14:38;;;;;;;30.80;25.55;;;;;;;;;;5281260;28;20033;-70
2022/05/20 06:17:11;;;;;;;26.85;22.92;;;;;;;;;;5281453;28;20019;-68
2022/05/20 06:19:43;;;;;;;24.33;21.73;;;;;;;;;;5280662;28;20028;-68
2022/05/20 06:22:14;;;;;;;26.10;21.73;;;;;;;;;;5280980;28;20098;-68
2022/05/20 06:24:45;;;;;;;21.75;19.45;;;;;;;;;;5281301;28;20028;-68
2022/05/20 06:27:16;;;;;;;21.92;18.65;;;;;;;;;;5280672;28;20753;-69
2022/05/20 06:29:48;;;;;;;18.67;16.75;;;;;;;;;;5281396;28;20259;-69
2022/05/20 06:32:19;;;;;;;18.70;15.90;;;;;;;;;;5280766;28;20290;-70
2022/05/20 06:40:30;;;;;;;14.38;12.07;;;;;;;;;;5280701;28;20020;-69
2022/05/20 06:43:02;;;;;;;17.45;13.10;;;;;;;;;;5281345;28;20032;-69
2022/05/20 06:45:33;;;;;;;15.95;13.85;;;;;;;;;;5281000;28;20278;-69
2022/05/20 06:48:05;;;;;;;14.77;13.38;;;;;;;;;;5280432;28;20316;-70
2022/05/20 06:50:37;;;;;;;16.02;13.15;;;;;;;;;;5281304;28;20040;-70
2022/05/20 06:53:09;;;;;;;17.75;15.02;;;;;;;;;;5281052;28;20016;-69
2022/05/20 06:55:40;;;;;;;15.77;13.70;;;;;;;;;;5280384;28;20013;-69
2022/05/20 06:58:11;;;;;;;16.85;12.65;;;;;;;;;;5280916;28;20027;-69
2022/05/20 07:00:42;;;;;;;13.70;12.17;;;;;;;;;;5280063;28;20009;-70
2022/05/20 07:03:14;;;;;;;15.85;13.45;;;;;;;;;;5280831;28;20324;-69
2022/05/20 07:05:45;;;;;;;14.85;13.27;;;;;;;;;;5280708;28;20020;-69
2022/05/20 07:08:17;;;;;;;16.88;12.98;;;;;;;;;;5279704;28;20017;-69
2022/05/20 07:10:48;;;;;;;15.38;12.85;;;;;;;;;;5280661;28;20028;-69
2022/05/20 07:13:19;;;;;;;16.90;13.38;;;;;;;;;;5280404;28;20495;-69
2022/05/20 07:15:50;;;;;;;14.38;12.73;;;;;;;;;;5279917;28;20179;-69
2022/05/20 07:18:21;;;;;;;13.68;11.65;;;;;;;;;;5280324;28;20400;-69
2022/05/20 07:20:53;;;;;;;12.77;9.93;;;;;;;;;;5280682;28;20020;-70
2022/05/20 07:23:26;;;;;;;10.43;9.25;;;;;;;;;;5280648;28;20025;-70
2022/05/20 07:25:57;;;;;;;13.63;8.75;;;;;;;;;;5284682;28;20262;-69
2022/05/20 07:28:29;;;;;;;10.15;8.93;;;;;;;;;;5284151;28;20416;-70
2022/05/20 07:31:01;;;;;;;10.18;8.02;;;;;;;;;;5283519;28;20481;-70
2022/05/20 07:33:32;;;;;;;10.18;7.68;;;;;;;;;;5284238;28;20422;-71
2022/05/20 07:36:04;;;;;;;8.23;5.78;;;;;;;;;;5283422;28;20439;-70
2022/05/20 07:38:35;;;;;;;10.57;5.63;;;;;;;;;;5284187;28;20028;-69
2022/05/20 07:41:06;;;;;;;7.45;5.22;;;;;;;;;;5284295;28;20107;-70
2022/05/20 07:43:38;;;;;;;7.50;4.78;;;;;;;;;;5283410;28;20263;-69
2022/05/20 07:46:09;;;;;;;9.32;5.32;;;;;;;;;;5283984;28;20273;-69
2022/05/20 07:48:40;;;;;;;7.30;4.60;;;;;;;;;;5280545;28;20046;-69
2022/05/20 07:51:14;;;;;;;6.47;4.03;;;;;;;;;;5282134;28;20299;-70
2022/05/20 07:53:49;;;;;;;6.82;3.67;;;;;;;;;;5283666;28;20023;-70
2022/05/20 07:56:20;;;;;;;6.35;4.95;;;;;;;;;;5283154;28;20028;-70
2022/05/20 07:58:53;;;;;;;7.68;4.90;;;;;;;;;;5283075;28;20016;-70
2022/05/20 08:01:26;;;;;;;8.38;4.18;;;;;;;;;;5283353;28;20016;-70
2022/05/20 08:06:53;;;;;;;9.00;3.72;;;;;;;;;;5284239;28;20471;-70
2022/05/20 08:09:25;;;;;;;6.27;3.30;;;;;;;;;;5283604;28;20032;-70
2022/05/20 08:11:56;;;;;;;7.68;3.10;;;;;;;;;;5283462;28;20339;-70
2022/05/20 08:14:28;;;;;;;10.48;3.63;;;;;;;;;;5283264;28;20016;-70
2022/05/20 08:17:00;;;;;;;9.18;3.78;;;;;;;;;;5283788;28;20012;-69
2022/05/20 08:19:32;;;;;;;4.68;2.88;;;;;;;;;;5282574;28;20051;-69
2022/05/20 08:22:03;;;;;;;6.82;3.28;;;;;;;;;;5283471;28;20048;-70
2022/05/20 08:24:35;;;;;;;7.75;3.65;;;;;;;;;;5283873;28;20027;-70
2022/05/20 08:27:06;;;;;;;10.85;3.97;;;;;;;;;;5283038;28;20116;-71
2022/05/20 08:29:37;;;;;;;7.22;4.15;;;;;;;;;;5283359;28;20391;-71
2022/05/20 08:32:08;;;;;;;7.93;4.45;;;;;;;;;;5282390;28;20165;-71
2022/05/20 08:34:39;;;;;;;6.88;4.13;;;;;;;;;;5282595;28;20032;-70
2022/05/20 08:37:11;;;;;;;14.17;4.67;;;;;;;;;;5283161;28;20103;-71
2022/05/20 08:39:42;;;;;;;6.85;4.47;;;;;;;;;;5282013;28;20266;-70
2022/05/20 08:42:16;;;;;;;10.23;5.00;;;;;;;;;;5282884;28;20032;-70
2022/05/20 08:44:47;;;;;;;8.23;5.22;;;;;;;;;;5283240;28;20154;-70
2022/05/20 08:47:21;;;;;;;9.45;5.28;;;;;;;;;;5281788;28;20099;-71
2022/05/20 08:49:57;;;;;;;8.98;4.88;;;;;;;;;;5283060;28;20013;-71
2022/05/20 08:52:28;;;;;;;8.48;5.30;;;;;;;;;;5282366;28;20024;-71
2022/05/20 08:54:59;;;;;;;10.40;4.88;;;;;;;;;;5282297;28;20382;-70
2022/05/20 08:57:34;;;;;;;8.02;4.70;;;;;;;;;;5282609;28;20047;-69
2022/05/20 09:00:09;;;;;;;5.72;5.10;;;;;;;;;;5282088;28;20038;-69
2022/05/20 09:02:40;;;;;;;7.95;5.32;;;;;;;;;;5282530;28;20021;-69
2022/05/20 09:05:23;;;;;;;10.35;6.60;;;;;;;;;;5282639;28;20360;-69
2022/05/20 09:07:55;;;;;;;8.30;6.82;;;;;;;;;;5282316;28;20024;-70
2022/05/20 09:10:31;;;;;;;8.40;6.82;;;;;;;;;;5282299;28;20162;-70
2022/05/20 09:13:06;;;;;;;14.73;8.05;;;;;;;;;;5282650;28;20021;-69
2022/05/20 09:15:43;;;;;;;11.48;8.07;;;;;;;;;;5281647;28;20375;-69
2022/05/20 09:18:33;;;;;;;12.32;8.18;;;;;;;;;;5282203;28;20021;-69
2022/05/20 09:21:04;;;;;;;11.13;7.20;;;;;;;;;;5282197;28;20055;-70
2022/05/20 09:23:54;;;;;;;10.88;7.32;;;;;;;;;;5281541;28;20016;-69
2022/05/20 09:26:30;;;;;;;11.32;7.13;;;;;;;;;;5282163;28;20348;-69
2022/05/20 09:29:20;;;;;;;9.48;7.65;;;;;;;;;;5281674;28;20016;-70
2022/05/20 09:31:56;;;;;;;11.80;8.63;;;;;;;;;;5282452;28;20153;-71
2022/05/20 09:34:27;;;;;;;11.82;8.23;;;;;;;;;;5281661;28;20038;-70
2022/05/20 09:37:00;;;;;;;14.00;9.77;;;;;;;;;;5281661;28;20028;-73
2022/05/20 09:39:39;;;;;;;13.15;8.70;;;;;;;;;;5281897;28;20020;-70
2022/05/20 09:42:12;;;;;;;15.27;9.27;;;;;;;;;;5281656;28;20551;-71
2022/05/20 09:44:51;;;;;;;11.77;8.32;;;;;;;;;;5280608;28;20506;-71
2022/05/20 09:47:30;;;;;;;15.18;11.07;;;;;;;;;;5280625;28;20388;-72
2022/05/20 09:50:22;;;;;;;13.45;10.50;;;;;;;;;;5281170;28;20048;-72
2022/05/20 09:52:59;;;;;;;14.02;9.93;;;;;;;;;;5282105;28;20387;-72
2022/05/20 09:55:31;;;;;;;15.38;9.93;;;;;;;;;;5281516;28;20020;-72
2022/05/20 09:58:14;;;;;;;13.82;10.20;;;;;;;;;;5280746;28;20032;-71
2022/05/20 10:01:05;;;;;;;14.52;10.50;;;;;;;;;;5281555;28;20024;-71
2022/05/20 10:03:38;;;;;;;14.38;10.25;;;;;;;;;;5280487;28;20040;-71
2022/05/20 10:06:18;;;;;;;12.88;9.52;;;;;;;;;;5281850;28;20035;-71
2022/05/20 10:09:10;;;;;;;12.88;10.40;;;;;;;;;;5282335;28;20025;-70
2022/05/20 10:11:59;;;;;;;14.32;10.70;;;;;;;;;;5280965;28;20032;-70
2022/05/20 10:14:37;;;;;;;12.00;10.13;;;;;;;;;;5281636;28;20017;-70
2022/05/20 10:17:11;;;;;;;11.65;9.10;;;;;;;;;;5281557;28;20546;-70
2022/05/20 10:19:48;;;;;;;14.25;9.95;;;;;;;;;;5280683;28;20024;-70
2022/05/20 10:22:20;;;;;;;13.32;10.85;;;;;;;;;;5281006;28;20502;-70
2022/05/20 10:25:05;;;;;;;14.95;11.02;;;;;;;;;;5280714;28;20028;-71
2022/05/20 10:27:40;;;;;;;14.82;10.15;;;;;;;;;;5280906;28;20028;-71
2022/05/20 10:33:06;;;;;;;13.82;10.50;;;;;;;;;;5280415;28;20070;-71
2022/05/20 10:35:54;;;;;;;11.48;9.63;;;;;;;;;;5281032;28;20055;-70
2022/05/20 10:38:31;;;;;;;14.30;10.18;;;;;;;;;;5280757;28;20024;-71
2022/05/20 10:41:14;;;;;;;14.43;10.68;;;;;;;;;;5280712;28;20036;-71
2022/05/20 10:49:47;;;;;;;11.88;9.40;;;;;;;;;;5280845;28;20090;-71
2022/05/20 10:52:19;;;;;;;13.00;9.63;;;;;;;;;;5280517;28;20437;-72
2022/05/20 10:55:09;;;;;;;12.60;10.18;;;;;;;;;;5280283;28;20021;-72
2022/05/20 10:57:46;;;;;;;14.48;9.65;;;;;;;;;;5277175;28;20020;-72
2022/05/20 11:00:18;;;;;;;17.05;10.27;;;;;;;;;;5284253;28;20020;-72
2022/05/20 11:03:02;;;;;;;12.52;9.50;;;;;;;;;;5285295;28;20495;-71
2022/05/20 11:05:36;;;;;;;14.77;10.35;;;;;;;;;;5284876;28;20021;-72
2022/05/20 11:08:17;;;;;;;17.70;11.90;;;;;;;;;;5284122;28;20107;-69
2022/05/20 11:10:55;;;;;;;15.45;10.88;;;;;;;;;;5284618;28;20082;-71
2022/05/20 11:13:44;;;;;;;12.80;10.35;;;;;;;;;;5284800;28;20025;-70
2022/05/20 11:16:25;;;;;;;16.52;11.07;;;;;;;;;;5284854;28;20181;-70
2022/05/20 11:19:08;;;;;;;14.77;11.60;;;;;;;;;;5284673;28;20024;-70
2022/05/20 11:21:51;;;;;;;23.77;12.85;;;;;;;;;;5282368;28;20503;-69
2022/05/20 11:24:26;;;;;;;20.02;14.10;;;;;;;;;;5281071;28;20012;-70
2022/05/20 11:27:16;;;;;;;20.17;14.05;;;;;;;;;;5282824;28;20539;-69
2022/05/20 11:30:01;;;;;;;130.82;23.05;;;;;;;;;;5282165;28;20024;-69
2022/05/20 11:32:44;;;;;;;45.28;19.23;;;;;;;;;;5283864;28;20506;-69
2022/05/20 11:35:18;;;;;;;24.95;16.67;;;;;;;;;;5283200;28;20012;-70
2022/05/20 11:37:49;;;;;;;23.52;18.48;;;;;;;;;;5284662;28;20024;-70
2022/05/20 11:40:41;;;;;;;23.45;17.98;;;;;;;;;;5283743;28;20523;-70
2022/05/20 11:43:29;;;;;;;21.90;17.50;;;;;;;;;;5272100;28;20056;-70
2022/05/20 11:46:01;;;;;;;23.20;17.52;;;;;;;;;;5284308;28;20089;-70
2022/05/20 11:48:41;;;;;;;21.60;17.50;;;;;;;;;;5283798;28;20028;-69
2022/05/20 11:51:31;;;;;;;21.45;18.05;;;;;;;;;;5283350;28;20032;-71
2022/05/20 11:54:11;;;;;;;24.60;19.17;;;;;;;;;;5283833;28;20511;-71
2022/05/20 11:56:46;;;;;;;28.58;19.83;;;;;;;;;;5283174;28;20013;-70
2022/05/20 11:59:22;;;;;;;23.60;18.77;;;;;;;;;;5283693;28;20082;-70
2022/05/20 12:02:00;;;;;;;22.90;18.80;;;;;;;;;;5283949;28;20026;-70
2022/05/20 12:04:33;;;;;;;25.05;19.00;;;;;;;;;;5282759;28;20059;-71
2022/05/20 12:07:06;;;;;;;26.65;20.45;;;;;;;;;;5283567;28;20048;-71
2022/05/20 12:09:42;;;;;;;31.92;24.48;;;;;;;;;;5281246;28;20028;-72
2022/05/20 12:12:16;;;;;;;36.13;29.00;;;;;;;;;;5280789;28;20135;-72
2022/05/20 12:14:53;;;;;;;42.67;33.90;;;;;;;;;;5281365;28;20051;-71
2022/05/20 12:17:47;;;;;;;50.67;39.50;;;;;;;;;;5282445;28;20017;-70
2022/05/20 12:26:00;;;;;;;55.78;42.60;;;;;;;;;;5282989;28;20024;-69
2022/05/20 12:28:32;;;;;;;56.78;44.65;;;;;;;;;;5283273;28;20039;-69
2022/05/20 12:31:04;;;;;;;57.75;44.38;;;;;;;;;;5282780;28;20395;-69
2022/05/20 12:33:54;;;;;;;62.03;47.65;;;;;;;;;;5282748;28;20017;-69
2022/05/20 12:36:28;;;;;;;62.85;47.15;;;;;;;;;;5282978;28;20028;-69
2022/05/20 12:39:08;;;;;;;64.38;48.15;;;;;;;;;;5282925;28;20016;-70
2022/05/20 12:41:48;;;;;;;67.95;49.65;;;;;;;;;;5283218;28;20032;-69
2022/05/20 12:44:20;;;;;;;71.57;51.55;;;;;;;;;;5282912;28;20020;-70
2022/05/20 12:47:03;;;;;;;64.25;49.45;;;;;;;;;;5282725;28;20038;-69
2022/05/20 12:49:38;;;;;;;63.33;47.85;;;;;;;;;;5282894;28;20385;-70
2022/05/20 12:52:28;;;;;;;61.33;50.00;;;;;;;;;;5282538;28;20032;-70
2022/05/20 12:55:10;;;;;;;61.40;48.35;;;;;;;;;;5283110;28;20111;-70
2022/05/20 12:57:54;;;;;;;57.40;46.60;;;;;;;;;;5282900;28;20013;-70
2022/05/20 13:00:30;;;;;;;60.72;47.35;;;;;;;;;;5281425;28;20025;-70
2022/05/20 13:03:05;;;;;;;67.82;49.53;;;;;;;;;;5278116;28;20047;-71
2022/05/20 13:05:46;;;;;;;59.45;46.65;;;;;;;;;;5281855;28;20032;-72
2022/05/20 13:08:19;;;;;;;58.33;44.88;;;;;;;;;;5281666;28;20031;-72
2022/05/20 13:10:50;;;;;;;60.60;47.22;;;;;;;;;;5282573;28;20095;-71
2022/05/20 13:13:23;;;;;;;66.22;47.85;;;;;;;;;;5281026;28;20112;-72
2022/05/20 13:15:55;;;;;;;63.45;48.63;;;;;;;;;;5282627;28;20044;-72
2022/05/20 13:18:28;;;;;;;64.10;50.10;;;;;;;;;;5282331;28;20447;-72
2022/05/20 13:21:01;;;;;;;68.28;51.42;;;;;;;;;;5281273;28;20044;-72
2022/05/20 13:23:38;;;;;;;65.90;49.97;;;;;;;;;;5282118;28;20020;-72
2022/05/20 13:26:29;;;;;;;67.40;49.83;;;;;;;;;;5282581;28;20025;-72
2022/05/20 13:29:17;;;;;;;63.13;48.08;;;;;;;;;;5281864;28;20031;-71
2022/05/20 13:31:48;;;;;;;54.22;43.38;;;;;;;;;;5282121;28;20032;-71
2022/05/20 13:34:19;;;;;;;51.97;40.17;;;;;;;;;;5281814;28;20485;-71
2022/05/20 13:36:50;;;;;;;45.97;38.05;;;;;;;;;;5281785;28;20040;-71
2022/05/20 13:39:22;;;;;;;48.30;38.33;;;;;;;;;;5281599;28;20024;-70
2022/05/20 13:41:54;;;;;;;46.30;37.75;;;;;;;;;;5281519;28;20471;-71
2022/05/20 13:44:25;;;;;;;39.58;33.97;;;;;;;;;;5275924;28;20012;-71
2022/05/20 13:49:51;;;;;;;37.00;30.98;;;;;;;;;;5281428;28;20258;-71
2022/05/20 13:52:22;;;;;;;33.15;27.85;;;;;;;;;;5281249;28;20364;-71
2022/05/20 13:54:58;;;;;;;29.95;26.52;;;;;;;;;;5281823;28;20017;-71
2022/05/20 13:57:34;;;;;;;25.50;20.63;;;;;;;;;;5280839;28;20036;-71
2022/05/20 14:00:20;;;;;;;22.33;19.83;;;;;;;;;;5281362;28;20027;-71
2022/05/20 14:03:01;;;;;;;20.63;17.27;;;;;;;;;;5281013;28;20028;-70
2022/05/20 14:05:45;;;;;;;15.32;12.57;;;;;;;;;;5281260;28;20077;-70
2022/05/20 14:08:18;;;;;;;11.88;10.45;;;;;;;;;;5281439;28;20515;-70
2022/05/20 14:10:50;;;;;;;8.48;6.00;;;;;;;;;;5280826;28;20103;-70
2022/05/20 14:13:25;;;;;;;5.68;4.00;;;;;;;;;;5281034;28;20133;-70
2022/05/20 14:15:57;;;;;;;5.57;3.33;;;;;;;;;;5281547;28;20024;-70
2022/05/20 14:18:33;;;;;;;6.38;2.33;;;;;;;;;;5280364;28;20387;-70
2022/05/20 14:21:19;;;;;;;3.20;1.60;;;;;;;;;;5281187;28;20040;-69
2022/05/20 14:23:54;;;;;;;5.30;1.20;;;;;;;;;;5280663;28;20024;-70
2022/05/20 14:26:25;;;;;;;3.95;1.00;;;;;;;;;;5280560;28;20039;-70
2022/05/20 14:28:59;;;;;;;4.22;1.40;;;;;;;;;;5281568;28;20040;-70
2022/05/20 14:31:36;;;;;;;2.58;1.15;;;;;;;;;;5279627;28;20032;-70
2022/05/20 14:34:22;;;;;;;2.25;1.20;;;;;;;;;;5280507;28;20021;-69
2022/05/20 14:36:55;;;;;;;4.55;1.23;;;;;;;;;;5281768;28;20371;-67
2022/05/20 14:39:28;;;;;;;2.65;1.00;;;;;;;;;;5279968;28;20062;-67
2022/05/20 14:42:05;;;;;;;2.72;1.23;;;;;;;;;;5281418;28;20490;-67
2022/05/20 14:44:46;;;;;;;3.78;1.05;;;;;;;;;;5281044;28;20033;-67
2022/05/20 14:47:23;;;;;;;3.40;0.93;;;;;;;;;;5281106;28;20384;-67
2022/05/20 14:49:56;;;;;;;2.30;1.17;;;;;;;;;;5281577;28;20028;-67
2022/05/20 14:52:46;;;;;;;3.53;0.93;;;;;;;;;;5279984;28;20028;-67
2022/05/20 14:55:21;;;;;;;4.85;1.13;;;;;;;;;;5280976;28;20468;-68
2022/05/20 14:58:13;;;;;;;5.35;4.85;;;;;;;;;;5281325;28;20464;-67
2022/05/20 15:00:54;;;;;;;8.88;7.78;;;;;;;;;;5280121;28;20490;-67
2022/05/20 15:03:27;;;;;;;12.52;11.40;;;;;;;;;;5280428;28;20025;-67
2022/05/20 15:05:59;;;;;;;17.25;15.75;;;;;;;;;;5280170;28;20107;-67
2022/05/20 15:08:32;;;;;;;18.33;16.58;;;;;;;;;;5280384;28;20056;-67
2022/05/20 15:11:16;;;;;;;18.60;16.90;;;;;;;;;;5280930;28;20530;-67
2022/05/20 15:13:48;;;;;;;16.70;15.20;;;;;;;;;;5280061;28;20032;-68
2022/05/20 15:16:19;;;;;;;16.45;15.02;;;;;;;;;;5280299;28;20028;-68
2022/05/20 15:18:51;;;;;;;17.50;15.90;;;;;;;;;;5281064;28;20086;-67
2022/05/20 15:21:30;;;;;;;16.77;15.18;;;;;;;;;;5279573;28;20311;-68
2022/05/20 15:24:04;;;;;;;17.63;15.85;;;;;;;;;;5280585;28;20112;-68
2022/05/20 15:26:36;;;;;;;16.48;15.07;;;;;;;;;;5280594;28;20475;-68
2022/05/20 15:29:08;;;;;;;17.58;16.00;;;;;;;;;;5280019;28;20116;-68
2022/05/20 15:37:31;;;;;;;14.80;13.40;;;;;;;;;;5279990;28;20060;-67
2022/05/20 15:40:14;;;;;;;11.43;10.30;;;;;;;;;;5280587;28;20021;-67
2022/05/20 15:42:45;;;;;;;8.50;7.70;;;;;;;;;;5279632;28;20356;-67
2022/05/20 15:45:18;;;;;;;6.03;5.43;;;;;;;;;;5282559;28;20024;-67
2022/05/20 15:47:51;;;;;;;5.40;4.90;;;;;;;;;;5284488;28;20111;-69
2022/05/20 15:50:23;;;;;;;4.93;3.60;;;;;;;;;;5283274;28;20024;-69
2022/05/20 15:52:59;;;;;;;4.65;3.67;;;;;;;;;;5284323;28;20028;-69